createdAt,value
2022-11-10T00:04:16.338Z,17.25
2022-11-10T00:09:53.323Z,18.17
2022-11-10T00:15:39.823Z,15.52
2022-11-10T00:21:04.673Z,7.90
2022-11-10T00:26:26.949Z,10.18
2022-11-10T00:31:46.716Z,16.17
2022-11-10T00:37:09.247Z,13.55
2022-11-10T00:42:28.501Z,15.93
2022-11-10T00:47:51.546Z,9.88
2022-11-10T00:53:11.293Z,13.30
2022-11-10T00:58:34.005Z,11.32
2022-11-10T01:03:53.959Z,11.77
2022-11-10T01:09:19.412Z,9.02
2022-11-10T01:14:38.586Z,15.85
2022-11-10T01:20:08.490Z,10.05
2022-11-10T01:25:28.098Z,12.63
2022-11-10T01:31:07.798Z,9.10
2022-11-10T01:36:27.318Z,10.57
2022-11-10T01:41:51.022Z,13.57
2022-11-10T01:47:10.489Z,11.50
2022-11-10T01:53:12.173Z,12.85
2022-11-10T01:58:39.390Z,9.52
2022-11-10T02:04:09.934Z,6.65
2022-11-10T02:09:29.365Z,14.63
2022-11-10T02:15:10.600Z,11.77
2022-11-10T02:20:30.739Z,8.95
2022-11-10T02:26:03.677Z,12.57
2022-11-10T02:31:34.240Z,15.77
2022-11-10T02:36:53.701Z,11.93
2022-11-10T02:42:13.084Z,12.70
2022-11-10T02:47:32.592Z,13.52
2022-11-10T02:53:10.449Z,7.57
2022-11-10T02:58:31.018Z,9.90
2022-11-10T03:04:11.904Z,14.35
2022-11-10T03:09:31.285Z,18.05
2022-11-10T03:14:57.596Z,14.23
2022-11-10T03:20:18.334Z,17.27
2022-11-10T03:25:48.026Z,13.73
2022-11-10T03:31:07.879Z,16.83
2022-11-10T03:36:36.714Z,16.20
2022-11-10T03:41:56.331Z,10.20
2022-11-10T03:47:25.668Z,10.57
2022-11-10T03:52:46.223Z,11.07
2022-11-10T03:58:19.447Z,8.85
2022-11-10T04:03:39.007Z,8.65
2022-11-10T04:09:04.319Z,11.68
2022-11-10T04:14:42.275Z,10.48
2022-11-10T04:20:05.045Z,9.52
2022-11-10T04:25:24.789Z,7.22
2022-11-10T04:30:55.657Z,6.30
2022-11-10T04:36:19.463Z,7.18
2022-11-10T04:41:40.255Z,12.60
2022-11-10T04:46:59.785Z,10.48
2022-11-10T04:52:26.449Z,9.55
2022-11-10T04:58:08.949Z,12.65
2022-11-10T05:03:31.994Z,7.25
2022-11-10T05:08:56.751Z,7.60
2022-11-10T05:14:16.311Z,11.45
2022-11-10T05:19:48.860Z,13.02
2022-11-10T05:25:08.517Z,9.93
2022-11-10T05:30:39.855Z,9.68
2022-11-10T05:36:00.261Z,10.52
2022-11-10T05:41:42.175Z,16.00
2022-11-10T05:47:10.809Z,9.40
2022-11-10T05:52:33.695Z,10.52
2022-11-10T05:57:54.759Z,13.13
2022-11-10T06:03:19.692Z,15.20
2022-11-10T06:09:08.536Z,11.25
2022-11-10T06:14:28.518Z,16.27
2022-11-10T06:20:07.777Z,17.60
2022-11-10T06:25:30.158Z,13.65
2022-11-10T06:31:07.849Z,13.98
2022-11-10T06:36:28.366Z,18.35
2022-11-10T06:41:55.825Z,27.60
2022-11-10T06:47:17.863Z,15.68
2022-11-10T06:52:42.565Z,20.05
2022-11-10T06:58:02.439Z,18.87
2022-11-10T07:03:23.938Z,22.65
2022-11-10T07:08:44.400Z,20.83
2022-11-10T07:14:20.804Z,20.48
2022-11-10T07:19:40.496Z,25.52
2022-11-10T07:25:19.683Z,22.92
2022-11-10T07:30:40.769Z,14.48
2022-11-10T07:36:13.201Z,22.65
2022-11-10T07:41:40.951Z,12.73
2022-11-10T07:47:00.808Z,17.60
2022-11-10T07:52:24.048Z,13.07
2022-11-10T07:57:43.939Z,20.02
2022-11-10T08:03:28.730Z,19.42
2022-11-10T08:08:51.363Z,17.20
2022-11-10T08:14:19.550Z,13.23
2022-11-10T08:19:38.833Z,18.37
2022-11-10T08:30:29.481Z,15.65
2022-11-10T08:36:44.816Z,20.33
2022-11-10T08:42:07.296Z,15.07
2022-11-10T08:47:37.132Z,12.50
2022-11-10T08:53:00.811Z,14.25
2022-11-10T08:58:33.227Z,17.75
2022-11-10T09:03:52.697Z,16.37
2022-11-10T09:09:31.760Z,19.15
2022-11-10T09:14:51.249Z,14.15
2022-11-10T09:20:11.925Z,14.82
2022-11-10T09:25:44.206Z,16.05
2022-11-10T09:31:03.637Z,14.50
2022-11-10T09:36:39.851Z,16.42
2022-11-10T09:41:59.421Z,13.75
2022-11-10T09:49:04.405Z,17.27
2022-11-10T09:54:45.078Z,13.68
2022-11-10T10:00:25.511Z,17.42
2022-11-10T10:06:16.378Z,12.93
2022-11-10T10:12:23.682Z,12.30
2022-11-10T10:25:21.621Z,11.43
2022-11-10T10:30:53.197Z,14.93
2022-11-10T10:36:25.564Z,9.25
2022-11-10T10:42:08.413Z,7.18
2022-11-10T10:47:38.435Z,18.87
2022-11-10T10:53:18.851Z,13.20
2022-11-10T10:59:09.552Z,10.32
2022-11-10T11:04:34.923Z,9.18
2022-11-10T11:09:57.545Z,11.63
2022-11-10T11:15:35.327Z,4.87
2022-11-10T11:21:26.294Z,11.65
2022-11-10T11:28:44.226Z,13.77
2022-11-10T11:34:40.355Z,7.20
2022-11-10T11:40:37.293Z,10.00
2022-11-10T11:46:50.623Z,8.57
2022-11-10T11:52:30.246Z,7.70
2022-11-10T12:06:15.450Z,8.18
2022-11-10T12:13:27.679Z,9.80
2022-11-10T12:19:18.900Z,8.85
2022-11-10T12:25:04.985Z,17.10
2022-11-10T12:31:00.580Z,11.27
2022-11-10T12:36:23.250Z,5.40
2022-11-10T12:42:01.995Z,9.48
2022-11-10T12:47:37.609Z,9.82
2022-11-10T12:53:03.272Z,14.13
2022-11-10T12:58:38.033Z,7.53
2022-11-10T13:04:00.740Z,16.90
2022-11-10T13:09:51.556Z,11.90
2022-11-10T13:15:51.691Z,11.88
2022-11-10T13:22:55.452Z,10.50
2022-11-10T13:28:15.080Z,10.80
2022-11-10T13:33:39.124Z,9.27
2022-11-10T13:39:34.983Z,15.98
2022-11-10T13:45:31.900Z,14.23
2022-11-10T13:51:49.618Z,7.05
2022-11-10T13:58:09.695Z,7.97
2022-11-10T14:07:03.161Z,9.20
2022-11-10T14:19:03.983Z,8.38
2022-11-10T14:25:15.112Z,9.27
2022-11-10T14:30:36.293Z,10.95
2022-11-10T14:36:01.461Z,10.20
2022-11-10T14:41:41.320Z,8.82
2022-11-10T14:47:15.563Z,12.30
2022-11-10T14:53:07.844Z,12.80
2022-11-10T14:58:37.307Z,9.70
2022-11-10T15:04:29.047Z,10.00
2022-11-10T15:10:06.837Z,10.57
2022-11-10T15:16:07.758Z,9.77
2022-11-10T15:21:33.140Z,16.02
2022-11-10T15:27:04.622Z,14.32
2022-11-10T15:32:33.113Z,11.27
2022-11-10T15:38:29.069Z,20.12
2022-11-10T15:56:49.160Z,19.65
2022-11-10T16:02:25.338Z,21.90
2022-11-10T16:08:25.234Z,24.83
2022-11-10T16:13:46.818Z,24.75
2022-11-10T16:19:57.014Z,26.08
2022-11-10T16:25:22.583Z,23.85
2022-11-10T16:30:45.101Z,28.75
2022-11-10T16:36:45.190Z,25.02
2022-11-10T16:42:04.756Z,26.25
2022-11-10T16:47:45.303Z,27.13
2022-11-10T16:53:11.844Z,30.40
2022-11-10T16:58:56.026Z,25.73
2022-11-10T17:04:15.827Z,31.42
2022-11-10T17:09:56.897Z,28.25
2022-11-10T17:15:17.283Z,30.27
2022-11-10T17:21:11.663Z,20.88
2022-11-10T17:26:33.657Z,27.05
2022-11-10T17:32:21.336Z,22.92
2022-11-10T17:37:49.625Z,20.62
2022-11-10T17:43:13.319Z,29.33
2022-11-10T17:54:13.925Z,41.03
2022-11-10T17:59:33.890Z,30.12
2022-11-10T18:05:17.053Z,33.50
2022-11-10T18:10:41.072Z,34.45
2022-11-10T18:17:40.090Z,31.33
2022-11-10T18:22:59.851Z,19.83
2022-11-10T18:28:19.558Z,21.50
2022-11-10T18:33:39.730Z,18.60
2022-11-10T18:38:59.325Z,32.42
2022-11-10T18:44:19.852Z,54.63
2022-11-10T18:50:11.714Z,44.72
2022-11-10T18:55:31.383Z,25.15
2022-11-10T19:01:15.594Z,27.50
2022-11-10T19:06:35.240Z,32.17
2022-11-10T19:12:04.740Z,19.42
2022-11-10T19:17:24.364Z,16.33
2022-11-10T19:22:43.871Z,21.58
2022-11-10T19:28:03.957Z,20.67
2022-11-10T19:33:30.501Z,27.52
2022-11-10T19:38:50.077Z,23.65
2022-11-10T19:49:56.100Z,20.33
2022-11-10T19:55:31.820Z,15.73
2022-11-10T20:01:12.294Z,20.70
2022-11-10T20:06:32.207Z,19.92
2022-11-10T20:12:01.331Z,20.80
2022-11-10T20:17:20.882Z,14.48
2022-11-10T20:22:59.031Z,20.27
2022-11-10T20:28:51.409Z,15.93
2022-11-10T20:34:45.220Z,14.87
2022-11-10T20:45:33.629Z,19.17
2022-11-10T20:50:57.286Z,19.30
2022-11-10T20:56:16.694Z,15.70
2022-11-10T21:02:16.520Z,20.48
2022-11-10T21:07:36.197Z,15.65
2022-11-10T21:13:22.294Z,18.90
2022-11-10T21:18:45.122Z,12.43
2022-11-10T21:24:11.069Z,17.12
2022-11-10T21:29:30.522Z,11.55
2022-11-10T21:34:55.137Z,11.27
2022-11-10T21:40:15.956Z,12.05
2022-11-10T21:46:04.967Z,13.07
2022-11-10T21:51:47.772Z,8.10
2022-11-10T21:57:06.953Z,10.98
2022-11-10T22:03:00.143Z,13.50
2022-11-10T22:08:22.166Z,11.68
2022-11-10T22:14:07.465Z,6.35
2022-11-10T22:19:26.885Z,18.35
2022-11-10T22:30:22.635Z,10.27
2022-11-10T22:36:02.464Z,12.40
2022-11-10T22:41:41.032Z,10.05
2022-11-10T22:47:20.700Z,13.77
2022-11-10T22:52:40.167Z,17.75
2022-11-10T22:58:15.230Z,9.40
2022-11-10T23:03:37.290Z,7.75
2022-11-10T23:09:23.516Z,6.37
2022-11-10T23:20:28.633Z,9.50
2022-11-10T23:25:56.790Z,6.68
2022-11-10T23:31:19.084Z,8.85
2022-11-10T23:36:38.338Z,6.65
2022-11-10T23:41:57.907Z,10.07
2022-11-10T23:47:18.210Z,6.05
2022-11-10T23:52:37.478Z,6.00
2022-11-10T23:57:57.079Z,7.47
